createdAt,value
2023-06-15T00:00:34.555Z,6.30
2023-06-15T00:03:02.236Z,6.39
2023-06-15T00:05:29.432Z,6.43
2023-06-15T00:08:00.413Z,6.90
2023-06-15T00:10:27.386Z,6.36
2023-06-15T00:12:56.441Z,6.58
2023-06-15T00:15:25.547Z,6.29
2023-06-15T00:17:52.330Z,6.33
2023-06-15T00:23:28.473Z,6.26
2023-06-15T00:25:55.781Z,6.26
2023-06-15T00:28:27.030Z,6.51
2023-06-15T00:30:53.959Z,6.74
2023-06-15T00:33:21.295Z,6.37
2023-06-15T00:35:48.613Z,6.33
2023-06-15T00:38:15.363Z,6.15
2023-06-15T00:40:42.299Z,6.15
2023-06-15T00:43:09.293Z,6.46
2023-06-15T00:45:36.158Z,6.68
2023-06-15T00:48:03.641Z,6.44
2023-06-15T00:50:30.291Z,6.32
2023-06-15T00:52:57.745Z,6.36
2023-06-15T00:55:24.874Z,6.51
2023-06-15T00:57:51.579Z,6.59
2023-06-15T01:00:19.705Z,6.40
2023-06-15T01:02:47.776Z,6.33
2023-06-15T01:11:42.514Z,6.57
2023-06-15T01:14:09.308Z,6.81
2023-06-15T01:16:36.246Z,6.59
2023-06-15T01:19:02.939Z,6.97
2023-06-15T01:21:34.935Z,6.52
2023-06-15T01:24:01.886Z,6.36
2023-06-15T01:26:28.882Z,6.45
2023-06-15T01:28:55.582Z,6.16
2023-06-15T01:31:22.588Z,6.44
2023-06-15T01:33:49.601Z,6.62
2023-06-15T01:36:16.507Z,6.49
2023-06-15T01:38:43.330Z,6.48
2023-06-15T01:41:10.332Z,6.33
2023-06-15T01:43:37.813Z,6.13
2023-06-15T01:48:50.028Z,6.46
2023-06-15T01:51:16.754Z,6.59
2023-06-15T01:53:43.752Z,6.12
2023-06-15T01:56:10.674Z,6.28
2023-06-15T01:58:37.526Z,6.66
2023-06-15T02:01:04.541Z,6.19
2023-06-15T02:03:31.364Z,6.45
2023-06-15T02:05:58.040Z,6.01
2023-06-15T02:08:25.778Z,6.11
2023-06-15T02:10:52.855Z,6.02
2023-06-15T02:13:19.791Z,6.07
2023-06-15T02:15:46.539Z,6.18
2023-06-15T02:18:13.615Z,6.41
2023-06-15T02:23:37.916Z,7.03
2023-06-15T02:26:04.983Z,6.49
2023-06-15T02:28:32.983Z,6.70
2023-06-15T02:31:02.105Z,6.31
2023-06-15T02:33:29.059Z,6.43
2023-06-15T02:35:56.082Z,6.50
2023-06-15T02:38:23.063Z,6.33
2023-06-15T02:40:49.956Z,7.09
2023-06-15T02:43:16.946Z,6.46
2023-06-15T02:45:43.491Z,6.56
2023-06-15T02:48:10.457Z,6.64
2023-06-15T02:50:39.575Z,6.48
2023-06-15T02:53:06.510Z,6.74
2023-06-15T02:55:34.024Z,6.54
2023-06-15T02:58:00.729Z,6.72
2023-06-15T03:00:27.663Z,6.22
2023-06-15T03:03:01.955Z,6.82
2023-06-15T03:08:13.348Z,6.53
2023-06-15T03:10:40.297Z,7.09
2023-06-15T03:13:07.048Z,6.69
2023-06-15T03:15:34.350Z,6.78
2023-06-15T03:18:01.334Z,6.76
2023-06-15T03:20:30.649Z,7.03
2023-06-15T03:22:58.398Z,6.86
2023-06-15T03:25:25.036Z,6.48
2023-06-15T03:27:51.853Z,6.45
2023-06-15T03:30:19.219Z,6.44
2023-06-15T03:32:45.930Z,6.92
2023-06-15T03:35:16.337Z,6.95
2023-06-15T03:37:45.491Z,6.92
2023-06-15T03:40:14.552Z,6.65
2023-06-15T03:42:41.569Z,6.67
2023-06-15T03:45:08.629Z,6.74
2023-06-15T03:47:35.954Z,6.91
2023-06-15T03:50:02.737Z,6.91
2023-06-15T03:52:29.748Z,6.95
2023-06-15T03:54:56.842Z,6.78
2023-06-15T03:57:28.555Z,6.82
2023-06-15T03:59:56.285Z,7.09
2023-06-15T04:02:24.910Z,7.08
2023-06-15T04:04:54.206Z,6.94
2023-06-15T04:07:21.442Z,6.92
2023-06-15T04:09:49.500Z,6.90
2023-06-15T04:12:17.281Z,6.73
2023-06-15T04:14:48.637Z,7.25
2023-06-15T04:17:15.864Z,6.51
2023-06-15T04:19:42.942Z,6.86
2023-06-15T04:22:09.748Z,6.53
2023-06-15T04:24:36.867Z,7.10
2023-06-15T04:27:03.811Z,6.58
2023-06-15T04:29:33.019Z,6.44
2023-06-15T04:31:59.699Z,6.79
2023-06-15T04:34:26.424Z,6.83
2023-06-15T04:36:53.076Z,6.67
2023-06-15T04:39:22.154Z,6.41
2023-06-15T04:41:51.185Z,6.61
2023-06-15T04:44:18.724Z,6.68
2023-06-15T04:46:45.566Z,6.89
2023-06-15T04:49:12.513Z,6.63
2023-06-15T04:51:40.135Z,6.90
2023-06-15T04:54:06.720Z,6.55
2023-06-15T04:56:33.711Z,6.48
2023-06-15T04:59:01.437Z,6.67
2023-06-15T05:01:30.168Z,6.51
2023-06-15T05:04:00.003Z,6.96
2023-06-15T05:06:26.896Z,6.68
2023-06-15T05:08:57.807Z,6.85
2023-06-15T05:11:24.795Z,6.70
2023-06-15T05:13:53.839Z,6.72
2023-06-15T05:16:20.510Z,6.29
2023-06-15T05:18:47.219Z,6.54
2023-06-15T05:21:14.196Z,6.14
2023-06-15T05:23:40.913Z,6.86
2023-06-15T05:26:17.318Z,5.92
2023-06-15T05:28:52.115Z,6.26
2023-06-15T05:31:19.052Z,6.22
2023-06-15T05:33:45.724Z,6.32
2023-06-15T05:38:45.606Z,6.22
2023-06-15T05:41:14.205Z,5.59
2023-06-15T05:43:41.341Z,6.69
2023-06-15T05:46:08.224Z,5.62
2023-06-15T05:48:35.201Z,5.77
2023-06-15T05:51:02.121Z,5.77
2023-06-15T05:53:31.208Z,5.78
2023-06-15T05:55:58.119Z,6.11
2023-06-15T05:58:28.988Z,5.71
2023-06-15T06:00:57.575Z,5.96
2023-06-15T06:03:33.685Z,6.03
2023-06-15T06:06:01.399Z,6.30
2023-06-15T06:08:31.915Z,5.84
2023-06-15T06:10:58.567Z,5.92
2023-06-15T06:16:09.898Z,5.63
2023-06-15T06:18:37.799Z,6.05
2023-06-15T06:21:04.949Z,5.82
2023-06-15T06:23:32.040Z,5.55
2023-06-15T06:25:58.821Z,5.92
2023-06-15T06:28:26.951Z,5.75
2023-06-15T06:30:53.802Z,6.03
2023-06-15T06:33:21.075Z,6.01
2023-06-15T06:35:47.656Z,6.08
2023-06-15T06:38:14.649Z,6.04
2023-06-15T06:40:43.702Z,5.73
2023-06-15T06:43:11.247Z,5.73
2023-06-15T06:45:38.382Z,5.83
2023-06-15T06:48:07.456Z,5.68
2023-06-15T06:50:34.288Z,5.69
2023-06-15T06:53:03.320Z,5.52
2023-06-15T06:55:38.418Z,5.76
2023-06-15T06:58:05.457Z,5.70
2023-06-15T07:00:32.453Z,6.20
2023-06-15T07:02:59.560Z,5.50
2023-06-15T07:05:29.917Z,5.78
2023-06-15T07:08:12.258Z,5.63
2023-06-15T07:10:38.877Z,6.01
2023-06-15T07:13:06.528Z,5.75
2023-06-15T07:15:33.782Z,5.35
2023-06-15T07:18:00.419Z,5.57
2023-06-15T07:20:28.707Z,5.93
2023-06-15T07:22:59.545Z,5.82
2023-06-15T07:25:26.233Z,5.86
2023-06-15T07:27:52.818Z,5.75
2023-06-15T07:30:20.008Z,5.95
2023-06-15T07:32:48.094Z,5.71
2023-06-15T07:35:15.191Z,5.41
2023-06-15T07:37:44.922Z,5.44
2023-06-15T07:40:12.305Z,5.16
2023-06-15T07:42:43.962Z,5.68
2023-06-15T07:47:55.694Z,5.52
2023-06-15T07:50:31.683Z,5.58
2023-06-15T07:53:02.340Z,5.53
2023-06-15T07:55:29.453Z,5.58
2023-06-15T07:57:56.464Z,5.81
2023-06-15T08:03:26.250Z,5.85
2023-06-15T08:05:54.309Z,5.82
2023-06-15T08:08:26.400Z,5.63
2023-06-15T08:10:53.792Z,5.40
2023-06-15T08:13:21.018Z,6.01
2023-06-15T08:15:47.949Z,5.74
2023-06-15T08:18:15.067Z,5.92
2023-06-15T08:20:41.710Z,5.96
2023-06-15T08:23:08.304Z,6.28
2023-06-15T08:25:35.778Z,6.09
2023-06-15T08:28:02.626Z,6.08
2023-06-15T08:30:29.663Z,5.92
2023-06-15T08:32:56.368Z,6.42
2023-06-15T08:35:23.555Z,6.01
2023-06-15T08:37:51.160Z,6.41
2023-06-15T08:40:19.320Z,6.42
2023-06-15T08:42:46.823Z,6.78
2023-06-15T08:45:13.808Z,6.52
2023-06-15T08:47:41.022Z,6.26
2023-06-15T08:50:12.135Z,6.70
2023-06-15T08:52:39.151Z,6.54
2023-06-15T08:55:06.166Z,6.66
2023-06-15T08:57:33.153Z,6.72
2023-06-15T09:00:00.054Z,6.51
2023-06-15T09:02:28.517Z,6.47
2023-06-15T09:04:55.570Z,6.61
2023-06-15T09:07:23.138Z,6.51
2023-06-15T09:09:49.854Z,6.46
2023-06-15T09:12:16.798Z,6.47
2023-06-15T09:14:43.579Z,6.79
2023-06-15T09:17:12.390Z,6.93
2023-06-15T09:19:42.942Z,6.54
2023-06-15T09:22:09.636Z,6.53
2023-06-15T09:24:37.701Z,6.46
2023-06-15T09:27:04.794Z,6.34
2023-06-15T09:29:32.889Z,6.41
2023-06-15T09:31:59.529Z,6.64
2023-06-15T09:34:26.129Z,6.58
2023-06-15T09:36:53.025Z,6.30
2023-06-15T09:39:19.647Z,6.06
2023-06-15T09:41:46.857Z,6.38
2023-06-15T09:44:13.929Z,6.49
2023-06-15T09:46:40.629Z,6.29
2023-06-15T09:49:08.093Z,5.92
2023-06-15T09:51:34.743Z,5.97
2023-06-15T09:54:03.221Z,6.28
2023-06-15T09:56:31.745Z,6.06
2023-06-15T09:58:58.764Z,6.13
2023-06-15T10:01:25.486Z,5.87
2023-06-15T10:03:52.497Z,6.37
2023-06-15T10:06:19.608Z,6.02
2023-06-15T10:08:56.532Z,6.20
2023-06-15T10:11:23.188Z,6.52
2023-06-15T10:13:49.860Z,6.12
2023-06-15T10:16:16.923Z,5.63
2023-06-15T10:18:43.781Z,5.75
2023-06-15T10:21:19.458Z,5.91
2023-06-15T10:23:47.114Z,6.10
2023-06-15T10:26:15.343Z,6.06
2023-06-15T10:28:44.497Z,5.83
2023-06-15T10:31:11.394Z,6.03
2023-06-15T10:33:40.260Z,6.04
2023-06-15T10:36:07.232Z,5.64
2023-06-15T10:38:37.385Z,6.03
2023-06-15T10:41:04.937Z,5.60
2023-06-15T10:43:31.850Z,5.63
2023-06-15T10:45:59.093Z,5.58
2023-06-15T10:48:26.016Z,5.82
2023-06-15T10:50:52.616Z,5.70
2023-06-15T10:53:20.197Z,5.54
2023-06-15T10:55:47.677Z,5.63
2023-06-15T10:58:14.416Z,5.65
2023-06-15T11:00:41.063Z,5.35
2023-06-15T11:03:08.013Z,6.00
2023-06-15T11:08:51.195Z,5.31
2023-06-15T11:11:18.244Z,5.52
2023-06-15T11:13:45.925Z,5.58
2023-06-15T11:16:12.951Z,5.28
2023-06-15T11:18:42.031Z,5.38
2023-06-15T11:21:09.120Z,5.54
2023-06-15T11:23:35.825Z,5.58
2023-06-15T11:26:16.091Z,5.50
2023-06-15T11:28:43.064Z,5.01
2023-06-15T11:31:09.758Z,5.18
2023-06-15T11:33:36.403Z,5.36
2023-06-15T11:36:04.349Z,5.62
2023-06-15T11:38:31.041Z,5.49
2023-06-15T11:40:59.543Z,5.56
2023-06-15T11:43:27.148Z,5.25
2023-06-15T11:45:56.877Z,5.56
2023-06-15T11:48:24.176Z,5.54
2023-06-15T11:50:50.748Z,5.33
2023-06-15T11:53:19.367Z,5.48
2023-06-15T11:55:46.035Z,5.64
2023-06-15T11:58:15.073Z,5.74
2023-06-15T12:00:42.499Z,5.69
2023-06-15T12:03:11.547Z,5.43
2023-06-15T12:05:43.175Z,5.64
2023-06-15T12:08:13.440Z,6.05
2023-06-15T12:10:40.118Z,5.83
2023-06-15T12:13:06.861Z,5.76
2023-06-15T12:15:34.173Z,6.04
2023-06-15T12:18:01.761Z,5.83
2023-06-15T12:20:29.157Z,5.70
2023-06-15T12:22:55.888Z,6.10
2023-06-15T12:25:23.285Z,5.44
2023-06-15T12:27:49.979Z,5.19
2023-06-15T12:30:18.296Z,5.42
2023-06-15T12:32:46.044Z,5.67
2023-06-15T12:35:14.361Z,5.41
2023-06-15T12:37:50.225Z,5.31
2023-06-15T12:40:19.822Z,5.49
2023-06-15T12:42:47.075Z,5.92
2023-06-15T12:45:13.915Z,5.22
2023-06-15T12:47:41.602Z,5.25
2023-06-15T12:50:09.138Z,5.21
2023-06-15T12:52:43.051Z,5.25
2023-06-15T12:55:10.537Z,5.34
2023-06-15T12:57:37.711Z,5.57
2023-06-15T13:00:04.603Z,5.59
2023-06-15T13:02:33.428Z,5.18
2023-06-15T13:08:06.239Z,5.08
2023-06-15T13:10:32.891Z,5.67
2023-06-15T13:16:16.461Z,5.24
2023-06-15T13:18:45.661Z,5.39
2023-06-15T13:21:13.108Z,5.03
2023-06-15T13:23:41.814Z,5.17
2023-06-15T13:26:08.897Z,5.62
2023-06-15T13:28:43.139Z,5.17
2023-06-15T13:31:10.104Z,5.53
2023-06-15T13:33:37.150Z,5.15
2023-06-15T13:36:04.622Z,5.40
2023-06-15T13:38:31.494Z,5.62
2023-06-15T13:41:00.415Z,5.46
2023-06-15T13:43:27.601Z,5.30
2023-06-15T13:45:54.717Z,5.36
2023-06-15T13:48:21.936Z,5.03
2023-06-15T13:50:49.502Z,5.54
2023-06-15T13:53:16.343Z,5.49
2023-06-15T13:55:43.871Z,5.47
2023-06-15T13:58:12.888Z,5.64
2023-06-15T14:00:40.725Z,5.47
2023-06-15T14:03:07.693Z,5.07
2023-06-15T14:05:35.727Z,5.11
2023-06-15T14:08:03.702Z,5.22
2023-06-15T14:10:31.656Z,5.27
2023-06-15T14:12:58.563Z,5.02
2023-06-15T14:15:25.160Z,5.33
2023-06-15T14:17:52.841Z,5.33
2023-06-15T14:20:20.752Z,5.22
2023-06-15T14:22:47.966Z,5.23
2023-06-15T14:25:16.291Z,5.19
2023-06-15T14:27:42.902Z,5.39
2023-06-15T14:30:09.488Z,5.12
2023-06-15T14:32:36.165Z,5.09
2023-06-15T14:35:03.186Z,5.07
2023-06-15T14:37:29.700Z,5.33
2023-06-15T14:39:56.354Z,5.19
2023-06-15T14:42:24.324Z,5.28
2023-06-15T14:44:51.201Z,6.81
2023-06-15T14:47:18.478Z,11.85
2023-06-15T14:49:45.217Z,5.25
2023-06-15T14:52:14.786Z,5.29
2023-06-15T14:54:44.012Z,5.18
2023-06-15T14:57:13.061Z,5.18
2023-06-15T14:59:39.782Z,7.25
2023-06-15T15:02:06.466Z,5.77
2023-06-15T15:04:33.131Z,5.49
2023-06-15T15:07:00.058Z,5.10
2023-06-15T15:09:28.955Z,4.95
2023-06-15T15:11:55.663Z,5.33
2023-06-15T15:14:22.749Z,5.23
2023-06-15T15:16:49.613Z,5.11
2023-06-15T15:19:16.516Z,5.19
2023-06-15T15:21:43.225Z,5.15
2023-06-15T15:24:10.072Z,5.16
2023-06-15T15:26:37.696Z,5.24
2023-06-15T15:29:04.421Z,4.99
2023-06-15T15:31:34.683Z,18.02
2023-06-15T15:34:03.585Z,9.75
2023-06-15T15:36:30.350Z,5.79
2023-06-15T15:41:44.851Z,5.42
2023-06-15T15:44:11.608Z,5.30
2023-06-15T15:46:38.315Z,5.58
2023-06-15T15:49:05.045Z,5.24
2023-06-15T15:51:32.083Z,5.44
2023-06-15T15:53:58.648Z,5.37
2023-06-15T15:56:26.295Z,5.06
2023-06-15T15:58:53.064Z,5.25
2023-06-15T16:01:20.013Z,5.15
2023-06-15T16:03:49.361Z,5.22
2023-06-15T16:06:16.502Z,5.16
2023-06-15T16:08:51.595Z,5.01
2023-06-15T16:11:18.226Z,5.28
2023-06-15T16:13:44.940Z,4.87
2023-06-15T16:16:27.242Z,5.10
2023-06-15T16:18:55.586Z,5.26
2023-06-15T16:21:22.356Z,4.93
2023-06-15T16:23:49.333Z,5.04
2023-06-15T16:26:16.389Z,4.94
2023-06-15T16:28:43.358Z,5.00
2023-06-15T16:31:09.991Z,5.06
2023-06-15T16:33:37.211Z,5.28
2023-06-15T16:36:03.833Z,4.90
2023-06-15T16:38:30.862Z,5.36
2023-06-15T16:40:57.524Z,4.78
2023-06-15T16:43:24.189Z,5.12
2023-06-15T16:45:51.158Z,5.47
2023-06-15T16:48:18.049Z,5.39
2023-06-15T16:50:44.669Z,5.38
2023-06-15T16:53:14.111Z,5.21
2023-06-15T16:55:43.130Z,5.03
2023-06-15T16:58:09.830Z,5.30
2023-06-15T17:00:37.492Z,5.57
2023-06-15T17:03:04.375Z,5.09
2023-06-15T17:05:31.325Z,5.33
2023-06-15T17:08:01.196Z,5.00
2023-06-15T17:15:57.862Z,4.86
2023-06-15T17:18:25.330Z,5.05
2023-06-15T17:20:52.158Z,4.82
2023-06-15T17:26:05.952Z,5.00
2023-06-15T17:28:33.070Z,4.69
2023-06-15T17:30:59.723Z,4.98
2023-06-15T17:33:26.273Z,5.21
2023-06-15T17:35:53.192Z,5.10
2023-06-15T17:38:20.088Z,4.75
2023-06-15T17:40:46.989Z,4.75
2023-06-15T17:43:15.132Z,5.03
2023-06-15T17:45:42.364Z,5.09
2023-06-15T17:48:10.847Z,4.72
2023-06-15T17:50:37.666Z,4.87
2023-06-15T17:53:04.631Z,5.10
2023-06-15T17:55:31.532Z,5.26
2023-06-15T17:57:58.053Z,5.44
2023-06-15T18:00:25.003Z,5.09
2023-06-15T18:02:51.975Z,5.28
2023-06-15T18:05:19.666Z,4.91
2023-06-15T18:07:46.411Z,4.89
2023-06-15T18:10:13.487Z,4.80
2023-06-15T18:12:40.985Z,5.22
2023-06-15T18:15:07.994Z,5.19
2023-06-15T18:17:34.687Z,5.11
2023-06-15T18:20:01.240Z,5.04
2023-06-15T18:22:28.328Z,4.91
2023-06-15T18:24:55.304Z,4.98
2023-06-15T18:27:27.435Z,5.07
2023-06-15T18:29:54.882Z,5.18
2023-06-15T18:32:21.764Z,5.06
2023-06-15T18:34:48.443Z,5.49
2023-06-15T18:37:16.572Z,5.59
2023-06-15T18:39:44.088Z,5.46
2023-06-15T18:42:10.847Z,5.41
2023-06-15T18:44:37.603Z,5.52
2023-06-15T18:47:04.349Z,5.94
2023-06-15T18:49:35.288Z,5.27
2023-06-15T18:52:03.163Z,5.08
2023-06-15T18:54:31.094Z,5.22
2023-06-15T18:56:57.823Z,5.59
2023-06-15T18:59:24.739Z,5.04
2023-06-15T19:01:55.561Z,5.18
2023-06-15T19:04:22.922Z,5.28
2023-06-15T19:06:52.420Z,5.32
2023-06-15T19:09:18.993Z,5.12
2023-06-15T19:11:48.253Z,5.94
2023-06-15T19:14:17.124Z,5.65
2023-06-15T19:16:44.748Z,5.32
2023-06-15T19:19:11.985Z,5.88
2023-06-15T19:21:39.240Z,5.74
2023-06-15T19:24:06.067Z,5.20
2023-06-15T19:26:34.073Z,24.19
2023-06-15T19:29:01.570Z,75.13
2023-06-15T19:34:08.737Z,28.79
2023-06-15T19:36:36.451Z,86.18
2023-06-15T19:39:03.489Z,82.10
2023-06-15T19:41:33.088Z,36.70
2023-06-15T19:44:00.808Z,21.42
2023-06-15T19:46:27.879Z,9.21
2023-06-15T19:48:55.661Z,8.19
2023-06-15T19:51:25.133Z,6.14
2023-06-15T19:53:52.780Z,5.67
2023-06-15T19:56:26.492Z,5.28
2023-06-15T19:58:54.304Z,4.75
2023-06-15T20:01:23.031Z,4.82
2023-06-15T20:03:58.236Z,4.88
2023-06-15T20:06:26.715Z,4.99
2023-06-15T20:08:53.762Z,5.14
2023-06-15T20:11:20.883Z,5.02
2023-06-15T20:13:54.724Z,4.80
2023-06-15T20:16:21.769Z,5.10
2023-06-15T20:18:48.468Z,5.16
2023-06-15T20:21:16.106Z,5.13
2023-06-15T20:23:43.763Z,5.01
2023-06-15T20:26:11.534Z,4.93
2023-06-15T20:28:38.251Z,5.30
2023-06-15T20:31:04.950Z,5.08
2023-06-15T20:33:31.919Z,5.28
2023-06-15T20:35:58.873Z,5.12
2023-06-15T20:38:26.395Z,5.11
2023-06-15T20:40:53.054Z,5.18
2023-06-15T20:43:22.754Z,4.86
2023-06-15T20:45:52.088Z,5.13
2023-06-15T20:48:18.836Z,5.16
2023-06-15T20:50:45.754Z,5.32
2023-06-15T20:53:12.766Z,5.16
2023-06-15T20:58:24.172Z,4.93
2023-06-15T21:00:51.434Z,5.05
2023-06-15T21:03:20.541Z,4.89
2023-06-15T21:05:47.304Z,15.79
2023-06-15T21:08:23.137Z,38.93
2023-06-15T21:10:49.932Z,85.46
2023-06-15T21:13:16.576Z,60.70
2023-06-15T21:15:43.603Z,69.96
2023-06-15T21:18:10.661Z,131.31
2023-06-15T21:20:40.420Z,258.61
2023-06-15T21:23:07.240Z,176.85
2023-06-15T21:25:43.377Z,98.83
2023-06-15T21:28:10.908Z,118.76
2023-06-15T21:30:40.099Z,52.37
2023-06-15T21:33:09.566Z,25.40
2023-06-15T21:35:36.345Z,22.72
2023-06-15T21:38:05.378Z,13.19
2023-06-15T21:40:32.100Z,8.06
2023-06-15T21:43:01.852Z,6.23
2023-06-15T21:45:38.874Z,5.53
2023-06-15T21:48:08.545Z,5.24
2023-06-15T21:50:40.440Z,5.20
2023-06-15T21:53:07.490Z,4.92
2023-06-15T21:55:34.425Z,4.95
2023-06-15T21:58:01.338Z,5.06
2023-06-15T22:00:28.161Z,5.15
2023-06-15T22:02:55.273Z,5.30
2023-06-15T22:05:21.965Z,5.01
2023-06-15T22:07:50.827Z,4.71
2023-06-15T22:10:20.329Z,5.13
2023-06-15T22:12:52.800Z,4.99
2023-06-15T22:15:21.893Z,4.57
2023-06-15T22:17:50.995Z,4.78
2023-06-15T22:20:19.801Z,5.15
2023-06-15T22:22:46.600Z,5.09
2023-06-15T22:25:13.562Z,4.79
2023-06-15T22:27:42.523Z,5.09
2023-06-15T22:30:11.730Z,4.94
2023-06-15T22:32:38.313Z,4.72
2023-06-15T22:35:05.096Z,4.99
2023-06-15T22:37:31.673Z,4.94
2023-06-15T22:40:01.106Z,4.68
2023-06-15T22:42:30.169Z,4.82
2023-06-15T22:44:59.270Z,4.93
2023-06-15T22:47:26.307Z,4.90
2023-06-15T22:49:52.980Z,4.75
2023-06-15T22:52:19.782Z,4.52
2023-06-15T22:54:46.755Z,4.80
2023-06-15T22:57:14.126Z,4.60
2023-06-15T22:59:41.048Z,4.60
2023-06-15T23:02:08.692Z,5.05
2023-06-15T23:04:35.402Z,4.90
2023-06-15T23:07:02.385Z,4.73
2023-06-15T23:09:28.931Z,4.99
2023-06-15T23:11:55.596Z,5.06
2023-06-15T23:14:24.482Z,4.77
2023-06-15T23:16:51.194Z,4.88
2023-06-15T23:19:18.353Z,5.02
2023-06-15T23:21:47.026Z,5.19
2023-06-15T23:24:13.768Z,4.80
2023-06-15T23:26:40.717Z,4.43
2023-06-15T23:29:07.651Z,5.02
2023-06-15T23:31:34.426Z,5.12
2023-06-15T23:34:01.302Z,5.03
2023-06-15T23:36:30.140Z,5.22
2023-06-15T23:38:56.892Z,5.08
2023-06-15T23:41:25.951Z,4.89
2023-06-15T23:43:52.932Z,5.15
2023-06-15T23:46:19.803Z,5.24
2023-06-15T23:48:48.965Z,5.07
2023-06-15T23:51:15.850Z,5.09
2023-06-15T23:53:43.316Z,5.14
2023-06-15T23:56:10.175Z,5.07
2023-06-15T23:58:39.209Z,5.13
